createdAt,value
2018-04-19T00:00:50.859Z,9.40
2018-04-19T00:03:17.444Z,9.40
2018-04-19T00:05:43.993Z,9.40
2018-04-19T00:08:10.483Z,9.30
2018-04-19T00:10:37.024Z,9.20
2018-04-19T00:13:04.296Z,9.20
2018-04-19T00:15:30.861Z,9.10
2018-04-19T00:17:57.379Z,9.10
2018-04-19T00:20:23.905Z,9.10
2018-04-19T00:22:50.426Z,9.10
2018-04-19T00:25:16.993Z,9.00
2018-04-19T00:27:43.516Z,9.00
2018-04-19T00:30:10.049Z,8.90
2018-04-19T00:32:36.548Z,9.00
2018-04-19T00:35:03.100Z,9.00
2018-04-19T00:37:29.744Z,9.00
2018-04-19T00:39:56.270Z,9.10
2018-04-19T00:42:22.822Z,9.10
2018-04-19T00:44:49.339Z,9.00
2018-04-19T00:47:15.879Z,8.90
2018-04-19T00:49:42.418Z,8.80
2018-04-19T00:52:09.708Z,8.70
2018-04-19T00:54:36.249Z,8.70
2018-04-19T00:57:02.862Z,8.70
2018-04-19T00:59:29.391Z,8.60
2018-04-19T01:01:56.630Z,8.70
2018-04-19T01:04:23.912Z,8.60
2018-04-19T01:06:51.196Z,8.60
2018-04-19T01:09:17.724Z,8.60
2018-04-19T01:11:44.265Z,8.60
2018-04-19T01:14:10.795Z,8.50
2018-04-19T01:16:37.432Z,8.50
2018-04-19T01:19:03.992Z,8.50
2018-04-19T01:21:30.562Z,8.50
2018-04-19T01:23:57.833Z,8.40
2018-04-19T01:26:24.367Z,8.40
2018-04-19T01:28:50.901Z,8.40
2018-04-19T01:31:17.437Z,8.30
2018-04-19T01:33:43.940Z,8.30
2018-04-19T01:36:22.599Z,8.20
2018-04-19T01:38:49.199Z,8.20
2018-04-19T01:41:15.699Z,8.20
2018-04-19T01:43:42.296Z,8.20
2018-04-19T01:46:09.610Z,8.10
2018-04-19T01:48:36.149Z,8.10
2018-04-19T01:51:02.661Z,8.20
2018-04-19T01:53:29.197Z,8.10
2018-04-19T01:55:55.737Z,8.10
2018-04-19T01:58:22.229Z,8.10
2018-04-19T02:00:48.750Z,8.00
2018-04-19T02:03:16.044Z,8.00
2018-04-19T02:05:42.552Z,7.90
2018-04-19T02:08:09.169Z,8.10
2018-04-19T02:10:35.700Z,8.10
2018-04-19T02:13:02.221Z,8.20
2018-04-19T02:15:28.748Z,8.20
2018-04-19T02:17:55.270Z,8.30
2018-04-19T02:20:22.522Z,8.20
2018-04-19T02:22:49.069Z,8.10
2018-04-19T02:25:15.655Z,8.10
2018-04-19T02:27:42.220Z,8.00
2018-04-19T02:30:08.743Z,7.90
2018-04-19T02:32:35.253Z,7.90
2018-04-19T02:35:01.803Z,7.80
2018-04-19T02:37:28.324Z,7.80
2018-04-19T02:39:55.607Z,7.90
2018-04-19T02:42:22.172Z,7.90
2018-04-19T02:44:48.710Z,7.80
2018-04-19T02:47:15.228Z,7.70
2018-04-19T02:49:41.838Z,7.70
2018-04-19T02:52:08.401Z,7.60
2018-04-19T02:54:34.896Z,7.60
2018-04-19T02:57:01.411Z,7.60
2018-04-19T02:59:27.964Z,7.60
2018-04-19T03:01:54.503Z,7.50
2018-04-19T03:04:21.781Z,7.40
2018-04-19T03:06:48.374Z,7.40
2018-04-19T03:09:14.926Z,7.40
2018-04-19T03:11:41.457Z,7.30
2018-04-19T03:14:08.736Z,7.30
2018-04-19T03:16:35.269Z,7.30
2018-04-19T03:19:01.799Z,7.30
2018-04-19T03:21:28.342Z,7.20
2018-04-19T03:23:54.859Z,7.20
2018-04-19T03:26:22.193Z,7.10
2018-04-19T03:28:48.685Z,7.10
2018-04-19T03:31:15.283Z,7.10
2018-04-19T03:33:41.848Z,7.20
2018-04-19T03:36:08.385Z,7.30
2018-04-19T03:38:34.964Z,7.30
2018-04-19T03:41:01.472Z,7.30
2018-04-19T03:43:28.001Z,7.50
2018-04-19T03:45:54.503Z,7.40
2018-04-19T03:48:21.086Z,7.30
2018-04-19T03:50:47.643Z,7.30
2018-04-19T03:53:14.923Z,7.20
2018-04-19T03:55:41.504Z,7.20
2018-04-19T03:58:08.029Z,7.20
2018-04-19T04:00:34.565Z,7.10
2018-04-19T04:03:01.085Z,7.00
2018-04-19T04:05:28.326Z,7.00
2018-04-19T04:07:55.587Z,7.00
2018-04-19T04:10:22.117Z,6.90
2018-04-19T04:12:48.649Z,7.00
2018-04-19T04:15:16.001Z,7.20
2018-04-19T04:17:55.365Z,7.30
2018-04-19T04:20:34.122Z,7.30
2018-04-19T04:26:04.730Z,7.30
2018-04-19T04:28:31.261Z,7.20
2018-04-19T04:30:58.633Z,7.10
2018-04-19T04:33:25.233Z,7.10
2018-04-19T04:35:51.773Z,7.10
2018-04-19T04:38:18.285Z,7.10
2018-04-19T04:40:44.806Z,7.10
2018-04-19T04:43:11.357Z,7.10
2018-04-19T04:45:37.965Z,7.20
2018-04-19T04:48:04.501Z,7.20
2018-04-19T04:50:31.060Z,7.20
2018-04-19T04:52:57.646Z,7.40
2018-04-19T04:55:24.219Z,7.50
2018-04-19T04:57:50.752Z,7.50
2018-04-19T05:00:17.305Z,7.60
2018-04-19T05:02:43.813Z,7.70
2018-04-19T05:05:10.365Z,7.70
2018-04-19T05:07:36.946Z,7.70
2018-04-19T05:10:03.478Z,7.80
2018-04-19T05:12:29.989Z,7.90
2018-04-19T05:14:56.567Z,8.00
2018-04-19T05:17:23.881Z,8.60
2018-04-19T05:19:50.403Z,8.60
2018-04-19T05:22:16.925Z,8.60
2018-04-19T05:24:43.564Z,8.70
2018-04-19T05:27:10.128Z,8.80
2018-04-19T05:29:36.656Z,9.00
2018-04-19T05:32:03.956Z,9.20
2018-04-19T05:34:30.494Z,9.20
2018-04-19T05:36:57.005Z,9.30
2018-04-19T05:39:23.505Z,9.50
2018-04-19T05:41:50.096Z,9.60
2018-04-19T05:44:17.336Z,9.90
2018-04-19T05:46:44.599Z,10.20
2018-04-19T05:49:11.155Z,10.10
2018-04-19T05:51:37.672Z,10.30
2018-04-19T05:54:04.277Z,10.50
2018-04-19T05:56:30.809Z,10.70
2018-04-19T05:58:57.365Z,10.80
2018-04-19T06:01:23.952Z,11.00
2018-04-19T06:03:51.465Z,11.20
2018-04-19T06:06:18.830Z,11.60
2018-04-19T06:08:45.460Z,11.60
2018-04-19T06:11:12.011Z,11.80
2018-04-19T06:13:39.390Z,12.10
2018-04-19T06:16:05.936Z,12.10
2018-04-19T06:18:32.471Z,12.30
2018-04-19T06:20:59.011Z,12.40
2018-04-19T06:23:25.545Z,12.70
2018-04-19T06:25:52.107Z,12.90
2018-04-19T06:28:18.618Z,13.00
2018-04-19T06:30:45.297Z,13.20
2018-04-19T06:33:12.562Z,13.50
2018-04-19T06:35:39.814Z,13.70
2018-04-19T06:38:07.204Z,13.90
2018-04-19T06:40:33.766Z,13.90
2018-04-19T06:43:00.312Z,14.00
2018-04-19T06:45:26.848Z,14.20
2018-04-19T06:47:53.388Z,14.40
2018-04-19T06:50:19.934Z,14.60
2018-04-19T06:52:46.454Z,14.70
2018-04-19T06:55:13.015Z,14.80
2018-04-19T06:57:39.513Z,15.10
2018-04-19T07:00:06.087Z,15.40
2018-04-19T07:02:32.600Z,15.50
2018-04-19T07:04:59.150Z,15.60
2018-04-19T07:07:25.684Z,15.60
2018-04-19T07:09:52.209Z,15.80
2018-04-19T07:12:18.730Z,16.00
2018-04-19T07:14:45.341Z,16.10
2018-04-19T07:17:11.845Z,16.20
2018-04-19T07:19:39.112Z,16.80
2018-04-19T07:22:05.666Z,16.70
2018-04-19T07:24:32.301Z,17.00
2018-04-19T07:26:58.802Z,17.30
2018-04-19T07:29:26.062Z,17.50
2018-04-19T07:31:52.613Z,17.50
2018-04-19T07:34:19.912Z,18.30
2018-04-19T07:36:46.445Z,18.30
2018-04-19T07:39:12.973Z,18.90
2018-04-19T07:41:40.239Z,21.00
2018-04-19T07:44:07.495Z,21.80
2018-04-19T07:46:34.013Z,21.70
2018-04-19T07:49:00.572Z,22.40
2018-04-19T07:51:27.161Z,22.60
2018-04-19T07:53:53.624Z,23.20
2018-04-19T07:56:20.127Z,23.60
2018-04-19T07:58:46.628Z,24.70
2018-04-19T08:01:13.158Z,25.40
2018-04-19T08:03:39.709Z,25.50
2018-04-19T08:06:06.295Z,25.00
2018-04-19T08:08:32.857Z,25.40
2018-04-19T08:10:59.451Z,26.70
2018-04-19T08:13:25.995Z,26.60
2018-04-19T08:15:52.577Z,26.40
2018-04-19T08:18:19.155Z,25.00
2018-04-19T08:20:45.745Z,25.60
2018-04-19T08:23:12.250Z,24.70
2018-04-19T08:25:38.752Z,25.80
2018-04-19T08:28:05.283Z,26.50
2018-04-19T08:30:32.537Z,27.10
2018-04-19T08:32:59.867Z,27.20
2018-04-19T08:35:26.431Z,27.20
2018-04-19T08:37:52.988Z,26.70
2018-04-19T08:40:19.523Z,26.70
2018-04-19T08:42:46.056Z,26.60
2018-04-19T08:45:12.573Z,26.20
2018-04-19T08:47:39.194Z,27.20
2018-04-19T08:50:06.468Z,29.20
2018-04-19T08:52:33.025Z,29.10
2018-04-19T08:54:59.554Z,28.90
2018-04-19T08:57:26.095Z,29.40
2018-04-19T08:59:52.625Z,28.80
2018-04-19T09:02:19.148Z,28.40
2018-04-19T09:04:45.687Z,26.40
2018-04-19T09:07:12.199Z,28.30
2018-04-19T09:09:39.479Z,30.70
2018-04-19T09:12:05.993Z,30.70
2018-04-19T09:14:33.268Z,28.20
2018-04-19T09:16:59.855Z,28.20
2018-04-19T09:19:26.453Z,30.70
2018-04-19T09:21:53.020Z,32.20
2018-04-19T09:24:19.522Z,30.70
2018-04-19T09:26:46.096Z,28.40
2018-04-19T09:29:12.589Z,28.80
2018-04-19T09:31:39.182Z,27.70
2018-04-19T09:34:05.686Z,29.90
2018-04-19T09:36:32.236Z,29.30
2018-04-19T09:38:58.865Z,31.10
2018-04-19T09:41:25.454Z,31.40
2018-04-19T09:43:52.712Z,31.10
2018-04-19T09:46:19.207Z,31.00
2018-04-19T09:48:45.715Z,30.00
2018-04-19T09:51:12.270Z,30.30
2018-04-19T09:53:38.835Z,30.20
2018-04-19T09:56:05.387Z,29.00
2018-04-19T09:58:31.973Z,29.40
2018-04-19T10:01:08.482Z,28.60
2018-04-19T10:03:41.090Z,28.50
2018-04-19T10:06:07.656Z,28.30
2018-04-19T10:08:34.179Z,28.80
2018-04-19T10:11:00.771Z,30.20
2018-04-19T10:13:27.274Z,31.10
2018-04-19T10:15:53.914Z,31.80
2018-04-19T10:18:20.384Z,32.40
2018-04-19T10:20:47.702Z,30.80
2018-04-19T10:23:14.270Z,30.80
2018-04-19T10:25:41.516Z,33.00
2018-04-19T10:28:08.058Z,32.90
2018-04-19T10:30:34.626Z,32.00
2018-04-19T10:33:01.148Z,34.20
2018-04-19T10:35:27.659Z,33.50
2018-04-19T10:37:54.208Z,33.10
2018-04-19T10:40:21.478Z,33.40
2018-04-19T10:42:47.998Z,33.40
2018-04-19T10:45:15.240Z,33.10
2018-04-19T10:47:42.513Z,32.80
2018-04-19T10:50:09.013Z,32.80
2018-04-19T10:52:35.536Z,33.20
2018-04-19T10:55:02.805Z,32.50
2018-04-19T10:57:30.115Z,32.00
2018-04-19T10:59:56.623Z,32.00
2018-04-19T11:02:23.148Z,31.50
2018-04-19T11:04:50.393Z,31.30
2018-04-19T11:07:17.685Z,31.00
2018-04-19T11:09:44.281Z,30.90
2018-04-19T11:12:10.800Z,31.30
2018-04-19T11:14:37.389Z,32.80
2018-04-19T11:17:03.960Z,31.90
2018-04-19T11:19:30.490Z,32.00
2018-04-19T11:21:57.772Z,33.90
2018-04-19T11:24:24.302Z,33.80
2018-04-19T11:26:50.815Z,33.60
2018-04-19T11:29:17.352Z,33.20
2018-04-19T11:31:44.616Z,32.90
2018-04-19T11:34:11.148Z,32.90
2018-04-19T11:36:37.731Z,34.20
2018-04-19T11:39:04.312Z,31.80
2018-04-19T11:41:31.608Z,34.00
2018-04-19T11:43:58.125Z,33.90
2018-04-19T11:46:24.647Z,34.90
2018-04-19T11:48:51.156Z,34.10
2018-04-19T11:51:17.669Z,34.10
2018-04-19T11:53:44.284Z,32.80
2018-04-19T11:56:11.584Z,33.10
2018-04-19T11:58:38.095Z,33.10
2018-04-19T12:01:04.649Z,32.10
2018-04-19T12:03:31.152Z,33.60
2018-04-19T12:05:58.463Z,35.90
2018-04-19T12:08:24.977Z,35.90
2018-04-19T12:10:51.510Z,35.70
2018-04-19T12:13:18.109Z,32.60
2018-04-19T12:15:45.357Z,34.80
2018-04-19T12:18:12.606Z,34.90
2018-04-19T12:20:39.219Z,34.90
2018-04-19T12:23:05.840Z,36.80
2018-04-19T12:25:32.344Z,35.00
2018-04-19T12:27:58.850Z,32.40
2018-04-19T12:30:25.378Z,33.60
2018-04-19T12:32:51.941Z,36.00
2018-04-19T12:35:18.468Z,35.10
2018-04-19T12:37:45.772Z,34.10
2018-04-19T12:40:12.318Z,34.00
2018-04-19T12:42:39.632Z,35.80
2018-04-19T12:45:06.169Z,35.80
2018-04-19T12:47:32.695Z,35.00
2018-04-19T12:49:59.268Z,33.00
2018-04-19T12:52:25.815Z,33.50
2018-04-19T12:54:52.317Z,34.30
2018-04-19T12:57:18.878Z,33.20
2018-04-19T12:59:45.389Z,32.10
2018-04-19T13:02:11.897Z,35.10
2018-04-19T13:04:39.181Z,36.70
2018-04-19T13:07:05.814Z,36.70
2018-04-19T13:09:32.338Z,36.60
2018-04-19T13:11:59.617Z,35.10
2018-04-19T13:14:26.139Z,35.00
2018-04-19T13:16:52.663Z,35.90
2018-04-19T13:19:19.169Z,35.20
2018-04-19T13:21:45.672Z,34.20
2018-04-19T13:24:12.241Z,35.90
2018-04-19T13:26:38.747Z,35.90
2018-04-19T13:29:05.286Z,34.70
2018-04-19T13:31:31.794Z,35.60
2018-04-19T13:33:58.318Z,36.40
2018-04-19T13:36:24.841Z,36.70
2018-04-19T13:38:51.440Z,36.90
2018-04-19T13:41:18.005Z,36.20
2018-04-19T13:43:45.258Z,35.20
2018-04-19T13:46:11.770Z,35.20
2018-04-19T13:48:38.309Z,35.70
2018-04-19T13:51:04.875Z,35.40
2018-04-19T13:53:32.200Z,35.60
2018-04-19T13:55:58.702Z,35.60
2018-04-19T13:58:25.215Z,35.00
2018-04-19T14:00:51.782Z,35.60
2018-04-19T14:03:18.320Z,36.50
2018-04-19T14:05:44.916Z,35.70
2018-04-19T14:08:11.484Z,35.00
2018-04-19T14:10:37.997Z,33.80
2018-04-19T14:13:04.519Z,32.20
2018-04-19T14:15:31.071Z,30.70
2018-04-19T14:17:57.656Z,29.70
2018-04-19T14:20:24.224Z,28.90
2018-04-19T14:22:51.502Z,28.50
2018-04-19T14:25:18.013Z,28.40
2018-04-19T14:27:44.521Z,28.50
2018-04-19T14:30:11.024Z,28.30
2018-04-19T14:32:37.526Z,27.90
2018-04-19T14:35:04.819Z,27.70
2018-04-19T14:37:31.342Z,27.70
2018-04-19T14:39:57.919Z,27.60
2018-04-19T14:42:24.613Z,27.60
2018-04-19T14:44:51.163Z,27.60
2018-04-19T14:47:17.782Z,27.10
2018-04-19T14:49:44.311Z,26.50
2018-04-19T14:52:10.839Z,26.60
2018-04-19T14:54:37.498Z,26.70
2018-04-19T14:57:04.032Z,26.50
2018-04-19T14:59:30.609Z,26.40
2018-04-19T15:01:57.144Z,26.50
2018-04-19T15:04:23.672Z,26.50
2018-04-19T15:06:50.192Z,26.70
2018-04-19T15:09:16.749Z,26.70
2018-04-19T15:11:43.302Z,26.50
2018-04-19T15:14:09.826Z,26.40
2018-04-19T15:16:36.341Z,26.30
2018-04-19T15:19:02.874Z,26.10
2018-04-19T15:21:29.441Z,26.10
2018-04-19T15:23:56.194Z,25.90
2018-04-19T15:26:22.834Z,25.80
2018-04-19T15:28:49.392Z,25.90
2018-04-19T15:31:16.696Z,25.90
2018-04-19T15:33:43.221Z,25.90
2018-04-19T15:36:09.768Z,25.90
2018-04-19T15:38:36.307Z,25.80
2018-04-19T15:41:02.881Z,25.70
2018-04-19T15:43:30.204Z,25.70
2018-04-19T15:45:56.757Z,25.70
2018-04-19T15:48:23.296Z,25.60
2018-04-19T15:50:50.589Z,25.40
2018-04-19T15:53:17.149Z,25.40
2018-04-19T15:55:43.682Z,25.30
2018-04-19T15:58:10.240Z,25.30
2018-04-19T16:00:36.760Z,25.10
2018-04-19T16:03:03.298Z,25.20
2018-04-19T16:05:29.833Z,25.10
2018-04-19T16:07:56.437Z,25.10
2018-04-19T16:10:22.961Z,25.00
2018-04-19T16:12:49.482Z,24.90
2018-04-19T16:15:16.605Z,24.80
2018-04-19T16:17:43.126Z,24.80
2018-04-19T16:20:09.643Z,24.70
2018-04-19T16:22:36.152Z,24.70
2018-04-19T16:25:02.769Z,24.60
2018-04-19T16:27:29.328Z,24.60
2018-04-19T16:29:55.929Z,24.50
2018-04-19T16:32:22.467Z,24.50
2018-04-19T16:34:49.008Z,24.40
2018-04-19T16:37:15.560Z,24.30
2018-04-19T16:39:42.819Z,24.20
2018-04-19T16:42:10.125Z,24.10
2018-04-19T16:44:36.703Z,24.00
2018-04-19T16:47:04.202Z,23.90
2018-04-19T16:49:30.763Z,23.90
2018-04-19T16:51:57.319Z,23.90
2018-04-19T16:54:24.618Z,23.70
2018-04-19T16:56:51.138Z,23.70
2018-04-19T16:59:18.380Z,23.50
2018-04-19T17:01:44.951Z,23.50
2018-04-19T17:04:11.580Z,23.50
2018-04-19T17:06:38.161Z,23.40
2018-04-19T17:09:05.746Z,23.40
2018-04-19T17:11:33.021Z,23.20
2018-04-19T17:13:59.577Z,23.20
2018-04-19T17:16:26.102Z,23.10
2018-04-19T17:18:52.709Z,23.00
2018-04-19T17:21:19.976Z,22.90
2018-04-19T17:23:46.545Z,22.80
2018-04-19T17:26:13.129Z,22.80
2018-04-19T17:28:39.709Z,22.70
2018-04-19T17:31:06.314Z,22.60
2018-04-19T17:33:33.610Z,22.20
2018-04-19T17:36:00.155Z,22.10
2018-04-19T17:38:27.451Z,21.70
2018-04-19T17:40:54.713Z,21.50
2018-04-19T17:43:21.309Z,21.40
2018-04-19T17:45:47.896Z,21.30
2018-04-19T17:48:14.408Z,21.10
2018-04-19T17:50:41.730Z,20.60
2018-04-19T17:53:08.299Z,20.60
2018-04-19T17:55:34.938Z,20.40
2018-04-19T17:58:01.691Z,20.20
2018-04-19T18:00:28.953Z,19.80
2018-04-19T18:02:55.560Z,19.80
2018-04-19T18:05:22.096Z,19.70
2018-04-19T18:07:52.009Z,19.50
2018-04-19T18:10:19.358Z,19.20
2018-04-19T18:12:46.035Z,19.10
2018-04-19T18:15:13.321Z,18.90
2018-04-19T18:17:39.920Z,18.80
2018-04-19T18:20:06.452Z,18.80
2018-04-19T18:22:33.801Z,18.40
2018-04-19T18:25:01.127Z,18.40
2018-04-19T18:27:28.599Z,18.40
2018-04-19T18:29:55.136Z,18.30
2018-04-19T18:32:21.698Z,18.20
2018-04-19T18:34:50.300Z,18.00
2018-04-19T18:37:17.802Z,18.00
2018-04-19T18:39:44.354Z,17.80
2018-04-19T18:42:10.874Z,17.70
2018-04-19T18:44:38.338Z,17.70
2018-04-19T18:47:04.870Z,17.60
2018-04-19T18:49:31.417Z,17.50
2018-04-19T18:51:58.028Z,17.40
2018-04-19T18:54:24.541Z,17.30
2018-04-19T18:56:51.062Z,17.20
2018-04-19T18:59:17.904Z,17.10
2018-04-19T19:01:45.239Z,17.00
2018-04-19T19:04:12.512Z,16.80
2018-04-19T19:06:39.100Z,16.80
2018-04-19T19:09:05.750Z,16.70
2018-04-19T19:11:32.261Z,16.70
2018-04-19T19:13:59.181Z,16.60
2018-04-19T19:16:25.716Z,16.60
2018-04-19T19:19:04.466Z,16.50
2018-04-19T19:21:31.001Z,16.40
2018-04-19T19:23:57.625Z,16.30
2018-04-19T19:26:24.175Z,16.30
2018-04-19T19:28:50.711Z,16.20
2018-04-19T19:31:17.352Z,16.10
2018-04-19T19:33:43.935Z,16.10
2018-04-19T19:36:11.242Z,16.00
2018-04-19T19:38:37.849Z,16.00
2018-04-19T19:41:04.399Z,15.90
2018-04-19T19:43:30.957Z,15.80
2018-04-19T19:45:57.649Z,15.70
2018-04-19T19:48:24.505Z,15.60
2018-04-19T19:50:51.046Z,15.60
2018-04-19T19:53:17.642Z,15.50
2018-04-19T19:55:45.017Z,15.40
2018-04-19T19:58:11.693Z,15.30
2018-04-19T20:00:38.317Z,15.30
2018-04-19T20:03:05.015Z,15.30
2018-04-19T20:05:32.427Z,15.10
2018-04-19T20:07:58.944Z,15.10
2018-04-19T20:10:25.554Z,15.00
2018-04-19T20:12:52.078Z,15.00
2018-04-19T20:15:18.624Z,15.00
2018-04-19T20:17:45.178Z,14.90
2018-04-19T20:20:11.717Z,14.90
2018-04-19T20:22:38.337Z,14.90
2018-04-19T20:25:05.640Z,14.80
2018-04-19T20:27:32.187Z,14.80
2018-04-19T20:29:58.797Z,14.80
2018-04-19T20:32:25.325Z,14.70
2018-04-19T20:34:52.716Z,14.70
2018-04-19T20:37:19.269Z,14.70
2018-04-19T20:39:45.898Z,14.60
2018-04-19T20:42:12.420Z,14.50
2018-04-19T20:44:38.957Z,14.40
2018-04-19T20:47:05.530Z,14.40
2018-04-19T20:49:32.089Z,14.50
2018-04-19T20:51:58.596Z,14.40
2018-04-19T20:54:25.157Z,14.30
2018-04-19T20:56:51.717Z,14.30
2018-04-19T20:59:18.273Z,14.20
2018-04-19T21:01:44.939Z,14.10
2018-04-19T21:04:11.489Z,14.10
2018-04-19T21:06:38.924Z,14.00
2018-04-19T21:09:05.600Z,14.00
2018-04-19T21:11:32.300Z,14.00
2018-04-19T21:13:58.844Z,14.00
2018-04-19T21:16:25.536Z,14.00
2018-04-19T21:18:52.157Z,14.00
2018-04-19T21:21:18.721Z,13.90
2018-04-19T21:23:45.310Z,13.90
2018-04-19T21:26:11.932Z,13.90
2018-04-19T21:28:38.558Z,13.80
2018-04-19T21:31:05.117Z,13.70
2018-04-19T21:33:31.692Z,13.70
2018-04-19T21:35:58.266Z,13.80
2018-04-19T21:38:24.826Z,13.70
2018-04-19T21:40:51.356Z,13.70
2018-04-19T21:43:17.890Z,13.70
2018-04-19T21:45:44.492Z,13.70
2018-04-19T21:48:11.033Z,13.70
2018-04-19T21:50:37.590Z,13.70
2018-04-19T21:53:05.238Z,13.60
2018-04-19T21:55:31.810Z,13.60
2018-04-19T21:57:58.478Z,13.50
2018-04-19T22:00:25.152Z,13.50
2018-04-19T22:02:51.769Z,13.40
2018-04-19T22:05:18.370Z,13.30
2018-04-19T22:07:45.821Z,13.30
2018-04-19T22:10:12.336Z,13.30
2018-04-19T22:12:38.878Z,13.30
2018-04-19T22:15:05.473Z,13.20
2018-04-19T22:17:32.032Z,13.10
2018-04-19T22:19:58.669Z,13.00
2018-04-19T22:22:25.211Z,13.00
2018-04-19T22:24:51.790Z,12.90
2018-04-19T22:27:18.368Z,13.00
2018-04-19T22:29:44.900Z,12.90
2018-04-19T22:32:11.428Z,12.90
2018-04-19T22:34:37.956Z,12.80
2018-04-19T22:37:04.507Z,12.80
2018-04-19T22:39:31.080Z,12.80
2018-04-19T22:41:57.681Z,12.70
2018-04-19T22:44:25.566Z,12.60
2018-04-19T22:46:52.955Z,12.60
2018-04-19T22:49:19.489Z,12.60
2018-04-19T22:51:46.832Z,12.60
2018-04-19T22:54:13.375Z,12.50
2018-04-19T22:56:40.517Z,12.50
2018-04-19T22:59:07.105Z,12.50
2018-04-19T23:01:33.620Z,12.50
2018-04-19T23:04:00.882Z,12.60
2018-04-19T23:06:27.454Z,12.60
2018-04-19T23:08:53.983Z,12.70
2018-04-19T23:11:20.550Z,12.80
2018-04-19T23:13:47.155Z,12.80
2018-04-19T23:16:13.737Z,12.80
2018-04-19T23:18:40.259Z,12.90
2018-04-19T23:21:06.789Z,12.80
2018-04-19T23:23:33.328Z,12.80
2018-04-19T23:25:59.918Z,12.80
2018-04-19T23:28:26.489Z,12.70
2018-04-19T23:30:53.765Z,12.70
2018-04-19T23:33:20.316Z,12.60
2018-04-19T23:35:47.616Z,12.50
2018-04-19T23:38:14.151Z,12.50
2018-04-19T23:40:41.486Z,12.40
2018-04-19T23:43:08.051Z,12.40
2018-04-19T23:45:34.642Z,12.40
2018-04-19T23:48:01.955Z,12.20
2018-04-19T23:50:28.522Z,12.20
2018-04-19T23:52:55.104Z,12.20
2018-04-19T23:55:21.684Z,12.10
2018-04-19T23:57:48.267Z,12.20
